createdAt,value
2019-02-07T00:00:02.541Z,2.77
2019-02-07T00:02:30.516Z,3.10
2019-02-07T00:04:58.159Z,3.40
2019-02-07T00:07:24.903Z,3.53
2019-02-07T00:09:51.700Z,3.80
2019-02-07T00:12:18.505Z,4.23
2019-02-07T00:14:46.130Z,3.73
2019-02-07T00:17:12.995Z,3.83
2019-02-07T00:19:41.054Z,4.37
2019-02-07T00:22:08.236Z,3.87
2019-02-07T00:24:42.470Z,4.40
2019-02-07T00:27:02.092Z,4.43
2019-02-07T00:29:28.925Z,3.97
2019-02-07T00:31:56.076Z,4.57
2019-02-07T00:34:23.125Z,5.43
2019-02-07T00:36:49.867Z,4.80
2019-02-07T00:39:17.249Z,5.40
2019-02-07T00:41:44.743Z,5.50
2019-02-07T00:44:12.546Z,5.30
2019-02-07T00:46:39.592Z,5.93
2019-02-07T00:49:06.404Z,5.83
2019-02-07T00:51:33.214Z,5.60
2019-02-07T00:54:02.926Z,5.70
2019-02-07T00:56:30.751Z,5.80
2019-02-07T00:58:57.640Z,6.40
2019-02-07T01:01:25.766Z,5.40
2019-02-07T01:03:52.720Z,4.97
2019-02-07T01:06:20.815Z,6.30
2019-02-07T01:08:48.536Z,6.57
2019-02-07T01:11:15.455Z,6.63
2019-02-07T01:13:47.607Z,7.03
2019-02-07T01:16:14.544Z,6.87
2019-02-07T01:18:44.494Z,6.87
2019-02-07T01:21:11.275Z,7.33
2019-02-07T01:23:38.235Z,6.93
2019-02-07T01:26:05.066Z,7.53
2019-02-07T01:28:32.173Z,7.70
2019-02-07T01:31:00.153Z,7.80
2019-02-07T01:33:34.290Z,8.17
2019-02-07T01:36:01.364Z,7.50
2019-02-07T01:38:29.502Z,7.30
2019-02-07T01:40:57.105Z,7.20
2019-02-07T01:43:23.855Z,6.23
2019-02-07T01:45:50.992Z,6.73
2019-02-07T01:48:17.739Z,7.00
2019-02-07T01:50:44.546Z,7.40
2019-02-07T01:53:11.772Z,7.40
2019-02-07T01:55:43.311Z,7.57
2019-02-07T01:58:10.403Z,7.17
2019-02-07T02:00:37.269Z,7.20
2019-02-07T02:03:04.593Z,7.10
2019-02-07T02:05:31.536Z,6.73
2019-02-07T02:07:58.751Z,6.30
2019-02-07T02:10:25.748Z,6.40
2019-02-07T02:12:58.681Z,6.07
2019-02-07T02:15:25.620Z,6.87
2019-02-07T02:17:53.638Z,6.43
2019-02-07T02:20:20.708Z,5.53
2019-02-07T02:22:47.522Z,6.17
2019-02-07T02:25:14.955Z,5.70
2019-02-07T02:27:41.821Z,5.97
2019-02-07T02:30:11.648Z,5.13
2019-02-07T02:32:39.274Z,6.47
2019-02-07T02:35:10.335Z,6.50
2019-02-07T02:37:37.359Z,5.57
2019-02-07T02:40:04.158Z,5.27
2019-02-07T02:42:32.080Z,4.87
2019-02-07T02:44:58.899Z,4.57
2019-02-07T02:47:27.108Z,4.37
2019-02-07T02:49:53.869Z,5.27
2019-02-07T02:52:20.697Z,5.13
2019-02-07T02:54:47.642Z,4.97
2019-02-07T02:57:14.358Z,4.87
2019-02-07T02:59:41.838Z,5.20
2019-02-07T03:02:10.879Z,5.50
2019-02-07T03:04:44.729Z,5.67
2019-02-07T03:07:11.590Z,5.10
2019-02-07T03:09:38.942Z,4.97
2019-02-07T03:12:10.664Z,5.20
2019-02-07T03:14:38.871Z,5.17
2019-02-07T03:17:07.600Z,4.77
2019-02-07T03:22:31.860Z,6.05
2019-02-07T03:25:01.883Z,4.57
2019-02-07T03:27:29.554Z,4.70
2019-02-07T03:33:06.983Z,6.80
2019-02-07T03:35:50.176Z,4.90
2019-02-07T03:38:19.822Z,4.23
2019-02-07T03:43:47.502Z,6.05
2019-02-07T03:46:20.281Z,4.37
2019-02-07T03:48:47.997Z,4.27
2019-02-07T03:51:17.554Z,4.40
2019-02-07T03:53:51.049Z,4.27
2019-02-07T03:56:35.199Z,4.40
2019-02-07T03:59:17.811Z,4.50
2019-02-07T04:01:55.228Z,5.13
2019-02-07T04:04:22.079Z,4.80
2019-02-07T04:09:52.060Z,7.15
2019-02-07T04:12:38.487Z,5.50
2019-02-07T04:15:08.253Z,4.50
2019-02-07T04:20:37.947Z,7.25
2019-02-07T04:23:19.614Z,5.10
2019-02-07T04:26:03.034Z,4.50
2019-02-07T04:28:36.860Z,4.73
2019-02-07T04:31:07.365Z,4.43
2019-02-07T04:33:35.111Z,4.60
2019-02-07T04:36:01.857Z,4.43
2019-02-07T04:38:28.698Z,4.23
2019-02-07T04:40:56.288Z,4.73
2019-02-07T04:43:29.179Z,4.90
2019-02-07T04:46:26.399Z,4.63
2019-02-07T04:48:43.436Z,4.80
2019-02-07T04:51:25.100Z,4.40
2019-02-07T04:53:52.808Z,5.00
2019-02-07T04:56:21.195Z,5.10
2019-02-07T04:58:49.108Z,5.17
2019-02-07T05:01:20.787Z,5.67
2019-02-07T05:03:48.447Z,5.37
2019-02-07T05:06:20.273Z,5.17
2019-02-07T05:09:02.855Z,5.33
2019-02-07T05:11:32.141Z,5.73
2019-02-07T05:14:00.451Z,5.30
2019-02-07T05:16:46.078Z,5.30
2019-02-07T05:19:13.704Z,5.70
2019-02-07T05:21:46.868Z,5.97
2019-02-07T05:24:17.562Z,5.80
2019-02-07T05:26:59.203Z,6.03
2019-02-07T05:29:28.025Z,5.47
2019-02-07T05:31:56.813Z,5.70
2019-02-07T05:34:25.702Z,5.50
2019-02-07T05:37:05.450Z,5.77
2019-02-07T05:39:38.229Z,5.67
2019-02-07T05:42:09.041Z,6.07
2019-02-07T05:44:51.645Z,7.23
2019-02-07T05:50:15.473Z,8.43
2019-02-07T05:52:43.216Z,6.50
2019-02-07T05:55:12.030Z,6.67
2019-02-07T05:57:45.017Z,6.70
2019-02-07T06:03:16.076Z,9.40
2019-02-07T06:08:49.184Z,9.32
2019-02-07T06:11:36.291Z,6.63
2019-02-07T06:14:14.953Z,6.37
2019-02-07T06:16:47.714Z,6.07
2019-02-07T06:19:16.568Z,6.20
2019-02-07T06:21:48.166Z,6.80
2019-02-07T06:27:06.396Z,8.80
2019-02-07T06:29:38.372Z,7.10
2019-02-07T06:32:11.254Z,7.13
2019-02-07T06:34:41.070Z,7.90
2019-02-07T06:37:07.911Z,7.23
2019-02-07T06:39:34.859Z,7.80
2019-02-07T06:42:01.802Z,7.60
2019-02-07T06:44:32.642Z,6.90
2019-02-07T06:47:13.849Z,7.07
2019-02-07T06:49:45.417Z,7.90
2019-02-07T06:52:31.731Z,7.33
2019-02-07T06:55:20.192Z,7.47
2019-02-07T07:01:01.149Z,10.65
2019-02-07T07:03:28.868Z,7.90
2019-02-07T07:06:09.440Z,7.67
2019-02-07T07:08:39.188Z,7.53
2019-02-07T07:11:21.577Z,7.20
2019-02-07T07:13:53.422Z,7.33
2019-02-07T07:16:26.418Z,7.83
2019-02-07T07:18:58.296Z,8.07
2019-02-07T07:21:25.935Z,7.33
2019-02-07T07:23:58.604Z,7.90
2019-02-07T07:26:44.971Z,7.80
2019-02-07T07:29:18.316Z,7.33
2019-02-07T07:32:03.685Z,6.43
2019-02-07T07:34:34.577Z,6.47
2019-02-07T07:40:12.356Z,8.32
2019-02-07T07:42:46.046Z,6.40
2019-02-07T07:45:26.951Z,5.93
2019-02-07T07:48:00.621Z,5.63
2019-02-07T07:50:34.122Z,4.80
2019-02-07T07:53:07.748Z,4.90
2019-02-07T07:55:36.452Z,4.30
2019-02-07T07:58:07.285Z,4.57
2019-02-07T08:00:49.253Z,3.70
2019-02-07T08:03:16.999Z,4.07
2019-02-07T08:08:39.364Z,4.18
2019-02-07T08:11:07.054Z,3.47
2019-02-07T08:16:32.965Z,3.70
2019-02-07T08:19:01.551Z,3.37
2019-02-07T08:21:45.290Z,3.27
2019-02-07T08:24:18.174Z,3.03
2019-02-07T08:27:03.758Z,3.30
2019-02-07T08:29:33.647Z,3.37
2019-02-07T08:32:05.253Z,3.10
2019-02-07T08:34:50.110Z,3.00
2019-02-07T08:37:23.079Z,2.87
2019-02-07T08:39:52.887Z,2.93
2019-02-07T08:42:34.582Z,3.33
2019-02-07T08:45:19.103Z,3.43
2019-02-07T08:47:58.192Z,3.40
2019-02-07T08:50:21.125Z,3.00
2019-02-07T08:52:54.207Z,2.63
2019-02-07T08:55:35.761Z,2.43
2019-02-07T08:58:06.546Z,2.07
2019-02-07T09:00:44.070Z,2.17
2019-02-07T09:03:17.114Z,2.20
2019-02-07T09:05:44.829Z,2.87
2019-02-07T09:08:26.610Z,2.43
2019-02-07T09:11:12.809Z,2.30
2019-02-07T09:13:45.486Z,1.80
2019-02-07T09:16:27.874Z,2.03
2019-02-07T09:19:10.290Z,1.80
2019-02-07T09:21:37.160Z,2.10
2019-02-07T09:24:10.603Z,2.00
2019-02-07T09:26:48.235Z,1.93
2019-02-07T09:29:16.767Z,2.10
2019-02-07T09:31:49.578Z,1.73
2019-02-07T09:34:21.472Z,1.90
2019-02-07T09:36:50.832Z,1.83
2019-02-07T09:39:34.669Z,1.70
2019-02-07T09:42:05.297Z,1.80
2019-02-07T09:44:38.229Z,1.67
2019-02-07T09:47:08.496Z,2.03
2019-02-07T09:49:50.187Z,2.00
2019-02-07T09:52:23.076Z,1.80
2019-02-07T09:55:04.754Z,2.00
2019-02-07T09:57:36.018Z,2.10
2019-02-07T10:00:06.751Z,1.93
2019-02-07T10:02:40.763Z,2.73
2019-02-07T10:05:13.229Z,2.30
2019-02-07T10:07:41.114Z,2.40
2019-02-07T10:10:13.989Z,2.43
2019-02-07T10:12:52.646Z,2.50
2019-02-07T10:15:31.072Z,2.30
2019-02-07T10:17:59.414Z,2.60
2019-02-07T10:20:27.992Z,1.83
2019-02-07T10:23:00.975Z,2.53
2019-02-07T10:25:27.719Z,2.50
2019-02-07T10:28:09.383Z,2.03
2019-02-07T10:30:42.291Z,1.90
2019-02-07T10:33:29.203Z,2.23
2019-02-07T10:36:16.868Z,2.30
2019-02-07T10:38:44.694Z,2.07
2019-02-07T10:41:17.791Z,2.30
2019-02-07T10:43:45.556Z,2.07
2019-02-07T10:46:15.227Z,2.03
2019-02-07T10:48:45.183Z,2.00
2019-02-07T10:51:30.726Z,1.87
2019-02-07T10:54:13.389Z,1.83
2019-02-07T10:56:56.090Z,2.10
2019-02-07T10:59:23.956Z,2.10
2019-02-07T11:01:56.740Z,2.20
2019-02-07T11:04:39.261Z,1.83
2019-02-07T11:07:13.105Z,1.80
2019-02-07T11:09:45.975Z,2.27
2019-02-07T11:12:13.549Z,1.77
2019-02-07T11:17:40.158Z,2.40
2019-02-07T11:20:12.973Z,2.00
2019-02-07T11:22:46.644Z,2.17
2019-02-07T11:25:19.640Z,1.83
2019-02-07T11:28:09.858Z,1.60
2019-02-07T11:30:32.961Z,2.40
2019-02-07T11:36:00.596Z,2.30
2019-02-07T11:38:42.250Z,1.77
2019-02-07T11:41:13.825Z,1.70
2019-02-07T11:43:44.452Z,2.10
2019-02-07T11:49:14.058Z,2.67
2019-02-07T11:51:44.808Z,2.03
2019-02-07T11:57:13.402Z,2.30
2019-02-07T11:59:46.175Z,2.10
2019-02-07T12:02:14.460Z,1.93
2019-02-07T12:07:43.829Z,3.17
2019-02-07T12:10:25.778Z,3.90
2019-02-07T12:12:59.410Z,4.10
2019-02-07T12:15:40.203Z,4.20
2019-02-07T12:18:07.300Z,4.10
2019-02-07T12:20:35.168Z,4.70
2019-02-07T12:23:02.929Z,4.50
2019-02-07T12:25:45.433Z,3.53
2019-02-07T12:28:13.390Z,3.37
2019-02-07T12:30:46.190Z,3.13
2019-02-07T12:33:19.176Z,3.03
2019-02-07T12:35:46.942Z,2.50
2019-02-07T12:38:19.928Z,2.80
2019-02-07T12:40:52.701Z,2.03
2019-02-07T12:43:22.422Z,1.90
2019-02-07T12:45:59.196Z,2.03
2019-02-07T12:48:32.079Z,1.93
2019-02-07T12:51:14.548Z,1.80
2019-02-07T12:53:52.494Z,1.97
2019-02-07T12:56:21.179Z,1.83
2019-02-07T12:58:54.167Z,1.70
2019-02-07T13:01:25.927Z,1.53
2019-02-07T13:03:58.912Z,1.70
2019-02-07T13:06:29.852Z,1.80
2019-02-07T13:08:56.794Z,1.73
2019-02-07T13:11:24.556Z,1.90
2019-02-07T13:13:57.443Z,1.93
2019-02-07T13:16:30.329Z,1.73
2019-02-07T13:19:00.105Z,1.60
2019-02-07T13:21:33.230Z,1.77
2019-02-07T13:24:06.149Z,1.70
2019-02-07T13:26:34.594Z,1.50
2019-02-07T13:29:18.233Z,1.90
2019-02-07T13:31:51.821Z,2.20
2019-02-07T13:37:27.558Z,2.30
2019-02-07T13:39:58.238Z,2.00
2019-02-07T13:42:39.935Z,1.87
2019-02-07T13:45:13.908Z,1.90
2019-02-07T13:47:55.327Z,2.00
2019-02-07T13:53:24.850Z,2.58
2019-02-07T13:55:57.725Z,1.83
2019-02-07T13:58:24.576Z,2.10
2019-02-07T14:01:06.222Z,1.90
2019-02-07T14:03:35.671Z,1.50
2019-02-07T14:06:13.265Z,1.57
2019-02-07T14:08:50.787Z,1.27
2019-02-07T14:11:34.496Z,1.50
2019-02-07T14:17:16.172Z,2.30
2019-02-07T14:20:03.670Z,1.70
2019-02-07T14:22:32.830Z,1.70
2019-02-07T14:25:20.632Z,1.60
2019-02-07T14:27:50.475Z,1.50
2019-02-07T14:30:23.364Z,1.70
2019-02-07T14:32:54.405Z,1.67
2019-02-07T14:38:16.402Z,2.22
2019-02-07T14:40:43.273Z,1.80
2019-02-07T14:43:10.139Z,1.60
2019-02-07T14:45:50.901Z,1.67
2019-02-07T14:48:21.751Z,1.93
2019-02-07T14:50:48.529Z,2.33
2019-02-07T14:53:15.324Z,1.63
2019-02-07T14:55:42.069Z,1.70
2019-02-07T14:58:08.814Z,1.97
2019-02-07T15:00:35.652Z,1.60
2019-02-07T15:03:02.495Z,1.63
2019-02-07T15:05:31.402Z,1.50
2019-02-07T15:07:56.186Z,1.47
2019-02-07T15:10:23.024Z,2.63
2019-02-07T15:12:49.763Z,1.70
2019-02-07T15:15:17.297Z,1.70
2019-02-07T15:17:44.168Z,1.50
2019-02-07T15:20:11.010Z,1.60
2019-02-07T15:22:37.958Z,1.83
2019-02-07T15:25:04.809Z,1.70
2019-02-07T15:27:31.724Z,1.17
2019-02-07T15:29:58.587Z,1.20
2019-02-07T15:32:25.636Z,1.40
2019-02-07T15:34:53.879Z,1.73
2019-02-07T15:37:19.296Z,1.20
2019-02-07T15:39:46.270Z,2.00
2019-02-07T15:42:13.216Z,2.37
2019-02-07T15:44:40.056Z,1.67
2019-02-07T15:47:08.843Z,1.90
2019-02-07T15:49:34.102Z,2.50
2019-02-07T15:52:00.917Z,1.70
2019-02-07T15:54:28.704Z,1.50
2019-02-07T15:56:55.514Z,1.73
2019-02-07T15:59:28.179Z,1.30
2019-02-07T16:01:57.756Z,2.23
2019-02-07T16:04:24.673Z,1.70
2019-02-07T16:06:52.706Z,1.67
2019-02-07T16:09:19.851Z,1.63
2019-02-07T16:11:46.798Z,2.30
2019-02-07T16:14:13.534Z,2.23
2019-02-07T16:16:40.480Z,2.20
2019-02-07T16:19:07.240Z,1.73
2019-02-07T16:21:34.166Z,1.93
2019-02-07T16:24:01.074Z,2.10
2019-02-07T16:26:28.058Z,1.93
2019-02-07T16:28:55.616Z,2.03
2019-02-07T16:31:22.563Z,1.97
2019-02-07T16:33:49.611Z,1.67
2019-02-07T16:36:16.422Z,1.67
2019-02-07T16:38:43.296Z,1.97
2019-02-07T16:41:10.571Z,1.90
2019-02-07T16:43:36.978Z,1.80
2019-02-07T16:46:03.822Z,2.03
2019-02-07T16:48:30.665Z,2.80
2019-02-07T16:51:00.231Z,2.00
2019-02-07T16:53:24.561Z,2.50
2019-02-07T16:55:51.606Z,2.37
2019-02-07T16:58:18.445Z,2.37
2019-02-07T17:00:45.288Z,2.30
2019-02-07T17:03:12.130Z,2.33
2019-02-07T17:05:38.975Z,2.10
2019-02-07T17:08:05.920Z,2.10
2019-02-07T17:10:33.680Z,2.10
2019-02-07T17:13:00.630Z,2.20
2019-02-07T17:15:27.470Z,2.33
2019-02-07T17:17:55.236Z,2.53
2019-02-07T17:20:23.616Z,2.33
2019-02-07T17:22:52.926Z,2.60
2019-02-07T17:25:20.170Z,2.13
2019-02-07T17:27:47.116Z,2.47
2019-02-07T17:30:17.335Z,2.50
2019-02-07T17:32:45.021Z,2.10
2019-02-07T17:35:12.874Z,2.30
2019-02-07T17:37:40.014Z,2.10
2019-02-07T17:40:10.543Z,2.33
2019-02-07T17:42:37.488Z,2.10
2019-02-07T17:45:04.433Z,1.73
2019-02-07T17:47:31.383Z,2.40
2019-02-07T17:49:58.271Z,2.60
2019-02-07T17:52:25.988Z,2.97
2019-02-07T17:54:52.834Z,2.60
2019-02-07T17:57:19.777Z,2.70
2019-02-07T17:59:46.722Z,2.40
2019-02-07T18:02:13.563Z,2.50
2019-02-07T18:04:40.406Z,2.43
2019-02-07T18:07:07.252Z,2.73
2019-02-07T18:09:34.196Z,2.40
2019-02-07T18:12:01.348Z,12.27
2019-02-07T18:14:28.294Z,11.37
2019-02-07T18:16:55.647Z,3.27
2019-02-07T18:19:23.819Z,14.07
2019-02-07T18:21:52.508Z,2.80
2019-02-07T18:24:19.966Z,26.63
2019-02-07T18:26:47.936Z,2.97
2019-02-07T18:29:15.494Z,2.90
2019-02-07T18:31:43.358Z,2.87
2019-02-07T18:34:11.741Z,2.43
2019-02-07T18:36:39.215Z,3.40
2019-02-07T18:39:07.943Z,2.63
2019-02-07T18:41:35.135Z,4.27
2019-02-07T18:44:02.387Z,4.37
2019-02-07T18:46:30.665Z,3.00
2019-02-07T18:48:58.631Z,4.30
2019-02-07T18:51:26.498Z,3.63
2019-02-07T18:53:53.343Z,8.23
2019-02-07T18:56:21.103Z,3.87
2019-02-07T18:58:48.470Z,3.97
2019-02-07T19:01:15.712Z,2.73
2019-02-07T19:03:42.657Z,3.60
2019-02-07T19:06:10.121Z,3.23
2019-02-07T19:08:37.161Z,3.20
2019-02-07T19:11:04.108Z,3.30
2019-02-07T19:13:31.058Z,2.93
2019-02-07T19:15:58.103Z,3.30
2019-02-07T19:18:25.164Z,3.10
2019-02-07T19:20:52.503Z,2.70
2019-02-07T19:23:19.996Z,2.70
2019-02-07T19:25:46.975Z,2.50
2019-02-07T19:28:13.795Z,2.50
2019-02-07T19:30:40.630Z,2.30
2019-02-07T19:33:07.455Z,6.07
2019-02-07T19:35:34.221Z,2.90
2019-02-07T19:38:01.751Z,2.53
2019-02-07T19:40:28.655Z,2.93
2019-02-07T19:42:55.834Z,2.60
2019-02-07T19:45:24.516Z,2.50
2019-02-07T19:47:51.379Z,2.20
2019-02-07T19:50:18.311Z,2.30
2019-02-07T19:52:46.060Z,2.23
2019-02-07T19:55:12.910Z,2.70
2019-02-07T19:57:39.727Z,2.50
2019-02-07T20:00:10.362Z,2.27
2019-02-07T20:02:38.135Z,2.40
2019-02-07T20:05:05.811Z,2.03
2019-02-07T20:07:32.933Z,2.20
2019-02-07T20:09:59.754Z,2.13
2019-02-07T20:12:27.469Z,2.03
2019-02-07T20:14:54.311Z,2.03
2019-02-07T20:17:21.260Z,1.87
2019-02-07T20:19:48.262Z,1.97
2019-02-07T20:22:20.394Z,2.20
2019-02-07T20:24:46.142Z,2.03
2019-02-07T20:27:09.233Z,2.00
2019-02-07T20:29:36.002Z,1.87
2019-02-07T20:32:02.792Z,2.03
2019-02-07T20:34:29.688Z,1.83
2019-02-07T20:36:56.514Z,1.60
2019-02-07T20:39:23.765Z,1.73
2019-02-07T20:41:50.811Z,1.73
2019-02-07T20:44:17.861Z,1.70
2019-02-07T20:46:45.627Z,1.50
2019-02-07T20:49:12.675Z,1.33
2019-02-07T20:51:39.442Z,1.23
2019-02-07T20:54:06.831Z,1.30
2019-02-07T20:56:34.432Z,1.20
2019-02-07T20:59:01.374Z,1.23
2019-02-07T21:01:28.447Z,1.07
2019-02-07T21:03:56.023Z,1.23
2019-02-07T21:06:23.528Z,1.10
2019-02-07T21:08:50.818Z,1.10
2019-02-07T21:11:17.958Z,1.00
2019-02-07T21:13:45.691Z,1.13
2019-02-07T21:16:13.348Z,0.90
2019-02-07T21:18:40.135Z,1.07
2019-02-07T21:21:07.778Z,0.90
2019-02-07T21:23:35.334Z,0.90
2019-02-07T21:26:06.321Z,1.00
2019-02-07T21:28:33.425Z,1.00
2019-02-07T21:31:01.328Z,0.80
2019-02-07T21:33:29.275Z,0.70
2019-02-07T21:35:57.274Z,0.80
2019-02-07T21:38:24.130Z,0.90
2019-02-07T21:40:52.157Z,1.00
2019-02-07T21:43:19.934Z,1.00
2019-02-07T21:45:46.757Z,0.90
2019-02-07T21:48:13.939Z,1.30
2019-02-07T21:50:40.893Z,1.10
2019-02-07T21:53:08.251Z,1.23
2019-02-07T21:55:37.631Z,1.20
2019-02-07T21:58:04.727Z,1.20
2019-02-07T22:00:40.917Z,1.40
2019-02-07T22:03:08.832Z,1.60
2019-02-07T22:05:36.345Z,1.40
2019-02-07T22:08:03.983Z,1.53
2019-02-07T22:10:31.607Z,1.40
2019-02-07T22:12:59.235Z,2.00
2019-02-07T22:15:27.604Z,1.60
2019-02-07T22:17:54.682Z,1.87
2019-02-07T22:20:21.527Z,2.10
2019-02-07T22:22:49.453Z,1.50
2019-02-07T22:25:19.158Z,2.00
2019-02-07T22:27:47.059Z,2.13
2019-02-07T22:30:20.876Z,2.00
2019-02-07T22:32:48.721Z,2.20
2019-02-07T22:35:15.668Z,2.37
2019-02-07T22:37:46.710Z,2.10
2019-02-07T22:40:17.126Z,2.47
2019-02-07T22:42:47.875Z,3.00
2019-02-07T22:45:13.290Z,3.10
2019-02-07T22:47:41.136Z,3.07
2019-02-07T22:50:09.463Z,3.13
2019-02-07T22:52:37.113Z,3.33
2019-02-07T22:55:04.737Z,3.90
2019-02-07T22:57:32.607Z,3.63
2019-02-07T23:00:00.812Z,4.23
2019-02-07T23:02:28.355Z,4.57
2019-02-07T23:04:56.266Z,4.13
2019-02-07T23:07:23.810Z,4.60
2019-02-07T23:09:50.794Z,4.77
2019-02-07T23:12:18.100Z,4.80
2019-02-07T23:14:45.211Z,5.60
2019-02-07T23:17:11.996Z,6.00
2019-02-07T23:19:39.761Z,6.27
2019-02-07T23:22:06.735Z,7.03
2019-02-07T23:24:33.497Z,7.60
2019-02-07T23:27:00.282Z,7.63
2019-02-07T23:29:28.032Z,8.97
2019-02-07T23:31:54.934Z,7.97
2019-02-07T23:34:29.937Z,8.47
2019-02-07T23:36:58.177Z,8.37
2019-02-07T23:39:25.011Z,9.93
2019-02-07T23:41:51.996Z,10.23
2019-02-07T23:44:19.592Z,10.37
2019-02-07T23:46:47.822Z,10.30
2019-02-07T23:49:16.231Z,10.90
2019-02-07T23:51:43.347Z,11.87
2019-02-07T23:54:10.913Z,10.73
2019-02-07T23:56:39.155Z,11.87
2019-02-07T23:59:08.821Z,11.47
